Time;durP1;ratioP1;P1;durP2;ratioP2;P2;SDS_P1;SDS_P2;PMS_P1;PMS_P2;Temp;Humidity;BMP_temperature;BMP_pressure;BME280_temperature;BME280_humidity;BME280_pressure;Samples;Min_cycle;Max_cycle;Signal;HPM_P1;HPM_P2
2022/12/05 00:00:51;;;;;;;62.88;23.58;;;5.70;99.90;;;;;;5030830;28;20029;-75
2022/12/05 00:03:17;;;;;;;57.75;24.52;;;5.70;99.90;;;;;;5031428;28;20049;-76
2022/12/05 00:05:43;;;;;;;60.88;24.95;;;5.80;99.90;;;;;;5032652;28;20484;-75
2022/12/05 00:08:08;;;;;;;64.25;25.80;;;5.70;99.90;;;;;;5034966;28;20364;-76
2022/12/05 00:10:38;;;;;;;60.15;24.90;;;5.80;99.90;;;;;;5035081;28;20029;-76
2022/12/05 00:13:04;;;;;;;58.22;24.13;;;5.70;99.90;;;;;;5033759;28;20041;-76
2022/12/05 00:15:30;;;;;;;53.58;23.08;;;5.70;99.90;;;;;;5035294;28;20033;-77
2022/12/05 00:17:56;;;;;;;54.10;22.77;;;5.70;99.90;;;;;;5035106;28;20036;-76
2022/12/05 00:20:22;;;;;;;61.15;23.88;;;5.70;99.90;;;;;;5034720;28;20057;-76
2022/12/05 00:22:47;;;;;;;62.20;25.63;;;5.70;99.90;;;;;;5034628;28;20035;-76
2022/12/05 00:25:13;;;;;;;56.05;24.10;;;5.70;99.90;;;;;;5034606;28;20044;-77
2022/12/05 00:27:38;;;;;;;58.72;23.58;;;5.70;99.90;;;;;;5034457;28;20035;-75
2022/12/05 00:30:05;;;;;;;68.35;25.20;;;5.70;99.90;;;;;;5035003;28;20109;-76
2022/12/05 00:32:31;;;;;;;59.78;24.10;;;5.70;99.90;;;;;;5034571;28;20428;-76
2022/12/05 00:34:57;;;;;;;58.08;23.27;;;5.70;99.90;;;;;;5034734;28;20038;-77
2022/12/05 00:37:23;;;;;;;58.45;23.42;;;5.60;99.90;;;;;;5034455;28;20095;-77
2022/12/05 00:39:48;;;;;;;54.53;23.30;;;5.70;99.90;;;;;;5034453;28;20040;-76
2022/12/05 00:42:14;;;;;;;57.08;23.02;;;5.70;99.90;;;;;;5034889;28;20430;-76
2022/12/05 00:44:40;;;;;;;59.97;23.00;;;5.70;99.90;;;;;;5034484;28;20109;-76
2022/12/05 00:47:06;;;;;;;64.68;24.60;;;5.80;99.90;;;;;;5034439;28;20475;-76
2022/12/05 00:49:31;;;;;;;55.72;22.58;;;5.70;99.90;;;;;;5034194;28;20042;-75
2022/12/05 00:51:57;;;;;;;60.92;23.08;;;5.80;99.90;;;;;;5034277;28;20471;-76
2022/12/05 00:54:23;;;;;;;55.92;23.27;;;5.80;99.90;;;;;;5035035;28;20081;-75
2022/12/05 00:56:51;;;;;;;49.55;21.58;;;5.80;99.90;;;;;;5034089;28;20034;-76
2022/12/05 00:59:18;;;;;;;;;;;5.80;99.90;;;;;;5034529;28;20060;-76
2022/12/05 01:01:45;;;;;;;52.30;21.80;;;5.80;99.90;;;;;;5034143;28;19909;-76
2022/12/05 01:04:22;;;;;;;63.63;24.08;;;5.70;99.90;;;;;;5034154;28;20424;-76
2022/12/05 01:06:49;;;;;;;49.83;20.73;;;5.70;99.90;;;;;;5033930;28;20036;-76
2022/12/05 01:09:18;;;;;;;52.28;22.05;;;5.80;99.90;;;;;;5034447;28;20428;-77
2022/12/05 01:11:45;;;;;;;54.53;22.25;;;5.80;99.90;;;;;;5033644;28;20467;-77
2022/12/05 01:14:12;;;;;;;52.72;22.13;;;5.70;99.90;;;;;;5033972;28;20033;-76
2022/12/05 01:16:40;;;;;;;53.40;20.83;;;5.70;99.90;;;;;;5034193;28;20034;-76
2022/12/05 01:19:19;;;;;;;56.72;22.98;;;5.70;99.90;;;;;;5033861;28;20033;-76
2022/12/05 01:21:46;;;;;;;54.42;22.48;;;5.70;99.90;;;;;;5032705;28;20033;-76
2022/12/05 01:24:12;;;;;;;55.00;22.45;;;5.70;99.90;;;;;;5034074;28;20021;-76
2022/12/05 01:26:40;;;;;;;54.58;22.05;;;5.80;99.90;;;;;;5033848;28;20461;-76
2022/12/05 01:29:06;;;;;;;50.10;21.15;;;5.80;99.90;;;;;;5033744;28;20394;-76
2022/12/05 01:31:34;;;;;;;54.40;20.85;;;5.80;99.90;;;;;;5033534;28;20037;-76
2022/12/05 01:34:03;;;;;;;50.40;21.40;;;5.70;99.90;;;;;;5033574;28;20049;-77
2022/12/05 01:36:29;;;;;;;51.58;22.08;;;5.70;99.90;;;;;;5034174;28;20033;-76
2022/12/05 01:38:56;;;;;;;50.70;22.15;;;5.90;99.90;;;;;;5032157;28;20044;-76
2022/12/05 01:41:35;;;;;;;51.20;21.02;;;5.90;99.90;;;;;;5033276;28;20045;-77
2022/12/05 01:44:27;;;;;;;52.42;21.48;;;5.80;99.90;;;;;;5034146;28;20043;-76
2022/12/05 01:46:54;;;;;;;53.50;21.45;;;5.80;99.90;;;;;;5034641;28;20025;-76
2022/12/05 01:49:29;;;;;;;59.37;21.30;;;5.80;99.90;;;;;;5033645;28;20463;-76
2022/12/05 01:52:02;;;;;;;50.97;20.58;;;5.70;99.90;;;;;;5032998;28;20259;-77
2022/12/05 01:54:29;;;;;;;51.83;20.65;;;5.70;99.90;;;;;;5033573;28;20045;-77
2022/12/05 01:57:02;;;;;;;52.05;21.52;;;5.70;99.90;;;;;;5032925;28;20038;-78
2022/12/05 01:59:33;;;;;;;46.10;20.02;;;5.70;99.90;;;;;;5031890;28;20037;-77
2022/12/05 02:01:59;;;;;;;47.63;19.50;;;5.80;99.90;;;;;;5033009;28;20040;-76
2022/12/05 02:04:26;;;;;;;44.88;20.80;;;5.80;99.90;;;;;;5033108;28;20030;-76
2022/12/05 02:06:53;;;;;;;41.92;18.92;;;5.80;99.90;;;;;;5031885;28;20025;-75
2022/12/05 02:09:19;;;;;;;49.58;19.95;;;5.70;99.90;;;;;;5032150;28;20037;-76
2022/12/05 02:12:04;;;;;;;47.50;19.40;;;5.70;99.90;;;;;;5031374;28;20358;-75
2022/12/05 02:14:46;;;;;;;45.60;19.35;;;5.70;99.90;;;;;;5032826;28;20038;-75
2022/12/05 02:17:33;;;;;;;45.88;19.92;;;5.70;99.90;;;;;;5032227;28;20041;-75
2022/12/05 02:20:25;;;;;;;42.85;18.13;;;5.70;99.90;;;;;;5032635;28;20456;-75
2022/12/05 02:23:12;;;;;;;45.67;19.80;;;5.80;99.90;;;;;;5032510;28;20134;-75
2022/12/05 02:26:16;;;;;;;51.53;19.13;;;5.80;99.90;;;;;;5031490;28;20345;-75
2022/12/05 02:29:07;;;;;;;45.50;18.58;;;5.80;99.90;;;;;;5030754;28;20041;-76
2022/12/05 02:31:47;;;;;;;49.72;19.60;;;5.90;99.90;;;;;;5030913;28;20034;-76
2022/12/05 02:34:19;;;;;;;45.42;18.85;;;5.90;99.90;;;;;;5032258;28;20029;-75
2022/12/05 02:37:02;;;;;;;45.55;19.90;;;5.90;99.90;;;;;;5016273;28;20505;-76
2022/12/05 02:40:02;;;;;;;44.65;19.98;;;5.80;99.90;;;;;;5013011;28;20037;-75
2022/12/05 02:42:40;;;;;;;44.25;18.90;;;5.80;99.90;;;;;;5012679;28;20030;-75
2022/12/05 02:45:13;;;;;;;40.28;18.38;;;5.80;99.90;;;;;;5012761;28;20060;-74
2022/12/05 02:47:51;;;;;;;45.38;18.33;;;5.80;99.90;;;;;;5011091;28;20034;-76
2022/12/05 02:50:28;;;;;;;45.30;18.58;;;5.80;99.90;;;;;;5012542;28;20041;-74
2022/12/05 02:52:58;;;;;;;42.70;19.00;;;5.90;99.90;;;;;;5012209;28;20487;-76
2022/12/05 02:55:27;;;;;;;47.40;19.02;;;5.80;99.90;;;;;;5012121;28;20037;-78
2022/12/05 02:57:57;;;;;;;44.90;19.35;;;5.80;99.90;;;;;;5012240;28;20029;-77
2022/12/05 03:00:23;;;;;;;43.10;20.75;;;5.80;99.90;;;;;;5012523;28;20041;-77
2022/12/05 03:02:52;;;;;;;46.88;18.83;;;5.80;99.90;;;;;;5012119;28;20025;-76
2022/12/05 03:05:39;;;;;;;41.85;18.25;;;5.90;99.90;;;;;;5012109;28;20129;-76
2022/12/05 03:08:11;;;;;;;44.35;19.17;;;5.80;99.90;;;;;;5011863;28;20092;-77
2022/12/05 03:10:39;;;;;;;40.38;17.15;;;5.80;99.90;;;;;;5011898;28;20045;-77
2022/12/05 03:13:08;;;;;;;;;;;5.80;99.90;;;;;;5011083;28;20135;-77
2022/12/05 03:15:50;;;;;;;37.72;16.67;;;5.80;99.90;;;;;;5012199;28;19906;-76
2022/12/05 03:18:20;;;;;;;39.92;17.77;;;5.80;99.90;;;;;;5011857;28;20046;-76
2022/12/05 03:20:58;;;;;;;45.25;18.25;;;5.80;99.90;;;;;;5011555;28;20025;-75
2022/12/05 03:23:41;;;;;;;41.65;16.70;;;5.80;99.90;;;;;;5011801;28;20121;-76
2022/12/05 03:26:19;;;;;;;42.03;18.23;;;6.00;99.90;;;;;;5011989;28;20030;-77
2022/12/05 03:29:16;;;;;;;38.22;17.88;;;5.90;99.90;;;;;;5010618;28;20424;-76
2022/12/05 03:32:07;;;;;;;41.30;16.80;;;5.90;99.90;;;;;;5010522;28;20284;-75
2022/12/05 03:34:42;;;;;;;42.63;17.73;;;5.90;99.90;;;;;;5011440;28;20022;-78
2022/12/05 03:37:49;;;;;;;38.88;17.30;;;5.90;99.90;;;;;;5011678;28;20033;-75
2022/12/05 03:40:51;;;;;;;36.33;15.55;;;5.90;99.90;;;;;;5009351;28;20121;-75
2022/12/05 03:43:38;;;;;;;36.58;15.80;;;5.90;99.90;;;;;;5011121;28;20349;-76
2022/12/05 03:46:10;;;;;;;37.20;16.65;;;5.80;99.90;;;;;;5011235;28;20176;-75
2022/12/05 03:48:41;;;;;;;40.90;16.70;;;5.80;99.90;;;;;;5011695;28;20445;-76
2022/12/05 03:51:09;;;;;;;34.83;16.90;;;5.80;99.90;;;;;;5011544;28;20053;-75
2022/12/05 03:53:42;;;;;;;35.58;16.55;;;5.80;99.90;;;;;;5010265;28;20036;-76
2022/12/05 03:56:17;;;;;;;32.67;15.13;;;5.90;99.90;;;;;;5011435;28;20030;-75
2022/12/05 03:58:50;;;;;;;34.25;15.32;;;5.90;99.90;;;;;;5010188;28;20061;-76
2022/12/05 04:01:18;;;;;;;35.28;15.25;;;5.90;99.90;;;;;;5010196;28;20045;-76
2022/12/05 04:03:50;;;;;;;33.95;14.68;;;5.90;99.90;;;;;;5011302;28;20033;-76
2022/12/05 04:06:18;;;;;;;33.85;15.65;;;5.90;99.90;;;;;;5012056;28;20033;-76
2022/12/05 04:08:52;;;;;;;34.25;15.32;;;5.90;99.90;;;;;;5010191;28;20273;-77
2022/12/05 04:11:22;;;;;;;30.77;14.02;;;5.90;99.90;;;;;;5009634;28;20125;-76
2022/12/05 04:13:53;;;;;;;34.78;14.73;;;5.90;99.90;;;;;;5010899;28;20088;-75
2022/12/05 04:21:36;;;;;;;36.08;14.48;;;5.90;99.90;;;;;;5011291;28;20163;-75
2022/12/05 04:22:17;;;;;;;30.67;14.40;;;5.80;99.90;;;;;;5010983;28;20038;-75
2022/12/05 04:27:44;;;;;;;37.22;15.55;;;5.90;99.90;;;;;;5011704;28;20080;-76
2022/12/05 04:30:22;;;;;;;34.45;15.10;;;6.00;99.90;;;;;;5011192;28;20052;-75
2022/12/05 04:33:04;;;;;;;37.08;15.35;;;5.90;99.90;;;;;;5011356;28;20117;-76
2022/12/05 04:35:37;;;;;;;34.45;15.40;;;5.90;99.90;;;;;;5011338;28;20029;-76
2022/12/05 04:38:09;;;;;;;33.25;15.52;;;5.80;99.90;;;;;;5011098;28;20041;-75
2022/12/05 04:40:40;;;;;;;34.95;15.00;;;5.80;99.90;;;;;;5010051;28;20037;-76
2022/12/05 04:43:08;;;;;;;33.25;14.48;;;5.90;99.90;;;;;;5010848;28;20045;-75
2022/12/05 04:45:36;;;;;;;31.88;13.98;;;5.90;99.90;;;;;;5011258;28;20471;-76
2022/12/05 04:48:08;;;;;;;30.70;14.15;;;5.90;99.90;;;;;;5010881;28;20037;-76
2022/12/05 04:50:36;;;;;;;31.02;14.25;;;6.00;99.90;;;;;;5011061;28;20041;-77
2022/12/05 04:53:02;;;;;;;29.83;14.30;;;6.10;99.90;;;;;;5013345;28;20038;-75
2022/12/05 04:55:30;;;;;;;33.40;15.43;;;6.00;99.90;;;;;;5014485;28;20419;-76
2022/12/05 04:58:10;;;;;;;31.40;14.73;;;6.00;99.90;;;;;;5014133;28;20086;-76
2022/12/05 05:01:03;;;;;;;32.53;15.07;;;6.00;99.90;;;;;;5013881;28;20026;-76
2022/12/05 05:03:49;;;;;;;31.55;14.27;;;6.00;99.90;;;;;;5015713;28;20065;-76
2022/12/05 05:06:16;;;;;;;32.08;13.70;;;6.00;99.90;;;;;;5015095;28;20364;-75
2022/12/05 05:08:51;;;;;;;34.97;15.60;;;6.00;99.90;;;;;;5013394;28;20103;-76
2022/12/05 05:11:23;;;;;;;28.83;13.05;;;6.00;99.90;;;;;;5013907;28;20367;-76
2022/12/05 05:13:48;;;;;;;31.38;14.00;;;6.00;99.90;;;;;;5014297;28;20109;-76
2022/12/05 05:16:39;;;;;;;30.75;13.50;;;5.90;99.90;;;;;;5014053;28;20125;-76
2022/12/05 05:19:06;;;;;;;28.98;13.63;;;5.90;99.90;;;;;;5012688;28;20109;-75
2022/12/05 05:21:37;;;;;;;26.85;11.98;;;5.90;99.90;;;;;;5014389;28;20022;-75
2022/12/05 05:24:04;;;;;;;31.35;13.25;;;6.00;99.90;;;;;;5013947;28;20038;-75
2022/12/05 05:26:32;;;;;;;26.23;12.45;;;6.00;99.90;;;;;;5014054;28;20064;-75
2022/12/05 05:28:58;;;;;;;28.20;13.25;;;6.00;99.90;;;;;;5013990;28;20030;-75
2022/12/05 05:31:24;;;;;;;34.42;14.13;;;5.90;99.90;;;;;;5014120;28;20424;-75
2022/12/05 05:33:52;;;;;;;30.10;13.35;;;6.00;99.90;;;;;;5013663;28;20042;-74
2022/12/05 05:36:19;;;;;;;27.83;13.60;;;6.00;99.90;;;;;;5014280;28;20060;-75
2022/12/05 05:38:50;;;;;;;29.35;13.52;;;6.00;99.90;;;;;;5013603;28;20368;-73
2022/12/05 05:41:19;;;;;;;30.10;13.60;;;5.90;99.90;;;;;;5013642;28;20038;-75
2022/12/05 05:43:45;;;;;;;29.27;14.05;;;6.00;99.90;;;;;;5013498;28;20103;-74
2022/12/05 05:46:12;;;;;;;29.58;13.93;;;6.00;99.90;;;;;;5013355;28;20515;-75
2022/12/05 05:48:39;;;;;;;26.55;12.55;;;6.00;99.90;;;;;;5013831;28;20072;-75
2022/12/05 05:51:06;;;;;;;33.00;14.65;;;6.00;99.90;;;;;;5013538;28;20034;-75
2022/12/05 05:53:32;;;;;;;26.83;12.88;;;6.00;99.90;;;;;;5013286;28;20034;-76
2022/12/05 05:56:11;;;;;;;28.35;13.13;;;5.90;99.90;;;;;;5011997;28;20372;-75
2022/12/05 05:58:38;;;;;;;28.58;13.27;;;6.00;99.90;;;;;;5013086;28;20057;-74
2022/12/05 06:01:17;;;;;;;26.95;12.80;;;6.00;99.90;;;;;;5012955;28;20504;-75
2022/12/05 06:03:43;;;;;;;26.98;12.45;;;6.00;99.90;;;;;;5012521;28;20022;-74
2022/12/05 06:06:11;;;;;;;27.50;12.52;;;6.00;99.90;;;;;;5013414;28;20359;-76
2022/12/05 06:08:39;;;;;;;24.75;12.10;;;6.00;99.90;;;;;;5012984;28;20177;-76
2022/12/05 06:11:19;;;;;;;27.52;13.45;;;6.00;99.90;;;;;;5011837;28;20041;-76
2022/12/05 06:13:45;;;;;;;29.52;13.32;;;5.90;99.90;;;;;;5012661;28;20096;-76
2022/12/05 06:16:14;;;;;;;24.27;11.73;;;5.90;99.90;;;;;;5012897;28;20753;-75
2022/12/05 06:18:40;;;;;;;27.05;12.45;;;6.00;99.90;;;;;;5012815;28;20188;-76
2022/12/05 06:21:09;;;;;;;26.05;12.38;;;5.90;99.90;;;;;;5012865;28;20026;-77
2022/12/05 06:23:36;;;;;;;27.20;13.00;;;5.90;99.90;;;;;;5012487;28;20112;-75
2022/12/05 06:26:03;;;;;;;24.88;11.68;;;6.00;99.90;;;;;;5013009;28;20037;-75
2022/12/05 06:28:28;;;;;;;25.88;11.50;;;5.90;99.90;;;;;;5012511;28;20050;-77
2022/12/05 06:30:54;;;;;;;19.88;10.52;;;5.90;99.90;;;;;;5012483;28;20034;-75
2022/12/05 06:33:20;;;;;;;29.23;11.10;;;5.90;99.90;;;;;;5015714;28;20045;-75
2022/12/05 06:35:45;;;;;;;25.23;11.43;;;5.90;99.90;;;;;;5032272;28;20025;-75
2022/12/05 06:38:11;;;;;;;22.60;10.40;;;5.90;99.90;;;;;;5032354;28;20037;-76
2022/12/05 06:40:42;;;;;;;21.45;10.75;;;5.90;99.90;;;;;;5030928;28;20041;-75
2022/12/05 06:43:09;;;;;;;20.33;11.18;;;6.00;99.90;;;;;;5019261;28;20471;-76
2022/12/05 06:45:37;;;;;;;25.20;10.80;;;5.80;99.90;;;;;;5012693;28;20354;-76
2022/12/05 06:48:03;;;;;;;20.92;10.10;;;5.90;99.90;;;;;;5012714;28;20132;-75
2022/12/05 06:50:29;;;;;;;23.40;10.65;;;5.90;99.90;;;;;;5012388;28;20036;-74
2022/12/05 06:52:55;;;;;;;20.92;10.10;;;5.90;99.90;;;;;;5011174;28;20026;-76
2022/12/05 06:55:20;;;;;;;21.17;11.05;;;5.90;99.90;;;;;;5011052;28;20363;-76
2022/12/05 06:57:46;;;;;;;22.77;10.68;;;5.90;99.90;;;;;;5010976;28;20026;-76
2022/12/05 07:02:57;;;;;;;26.70;13.75;;;5.80;99.90;;;;;;5012103;28;20099;-74
2022/12/05 07:05:22;;;;;;;20.08;9.48;;;5.70;99.90;;;;;;5011959;28;20042;-75
2022/12/05 07:07:48;;;;;;;19.80;9.90;;;5.70;99.90;;;;;;5012496;28;20061;-73
2022/12/05 07:10:14;;;;;;;21.30;10.82;;;5.80;99.90;;;;;;5012385;28;20033;-75
2022/12/05 07:12:40;;;;;;;25.33;10.70;;;5.80;99.90;;;;;;5011286;28;20483;-75
2022/12/05 07:15:06;;;;;;;20.38;10.13;;;5.80;99.90;;;;;;5011149;28;20026;-76
2022/12/05 07:17:36;;;;;;;20.65;9.73;;;5.80;99.90;;;;;;5010673;28;20038;-75
2022/12/05 07:20:02;;;;;;;20.85;9.25;;;5.80;99.90;;;;;;5010971;28;20040;-77
2022/12/05 07:22:28;;;;;;;20.42;10.10;;;5.80;99.90;;;;;;5010702;28;20040;-75
2022/12/05 07:24:54;;;;;;;20.42;10.23;;;5.80;99.90;;;;;;5011713;28;20026;-75
2022/12/05 07:27:19;;;;;;;24.83;9.93;;;5.80;99.90;;;;;;5011043;28;20026;-74
2022/12/05 07:29:46;;;;;;;24.02;10.30;;;5.80;99.90;;;;;;5010925;28;20402;-75
2022/12/05 07:32:12;;;;;;;22.77;9.70;;;5.80;99.90;;;;;;5011299;28;20056;-77
2022/12/05 07:34:37;;;;;;;18.40;9.93;;;5.90;99.90;;;;;;5012174;28;20372;-76
2022/12/05 07:37:03;;;;;;;19.67;9.50;;;5.90;99.90;;;;;;5011130;28;20033;-76
2022/12/05 07:39:29;;;;;;;17.83;9.88;;;5.90;99.90;;;;;;5012265;28;20095;-76
2022/12/05 07:41:55;;;;;;;18.52;9.25;;;5.80;99.90;;;;;;5010782;28;20453;-75
2022/12/05 07:44:21;;;;;;;21.42;9.52;;;5.90;99.90;;;;;;5010050;28;20091;-75
2022/12/05 07:46:46;;;;;;;18.10;9.65;;;5.90;99.90;;;;;;5011261;28;20037;-73
2022/12/05 07:49:14;;;;;;;17.40;9.65;;;5.90;99.90;;;;;;5011922;28;20464;-74
2022/12/05 07:51:40;;;;;;;22.67;10.30;;;5.90;99.90;;;;;;5011475;28;20113;-75
2022/12/05 07:54:06;;;;;;;19.48;9.88;;;5.80;99.90;;;;;;5011646;28;20105;-75
2022/12/05 07:56:32;;;;;;;19.13;9.68;;;5.90;99.90;;;;;;5012502;28;20269;-73
2022/12/05 07:58:57;;;;;;;16.75;9.02;;;6.00;99.90;;;;;;5012178;28;20052;-74
2022/12/05 08:01:25;;;;;;;20.92;9.95;;;6.00;99.90;;;;;;5011143;28;20048;-75
2022/12/05 08:03:56;;;;;;;20.30;9.38;;;6.00;99.90;;;;;;5010038;28;20030;-77
2022/12/05 08:06:27;;;;;;;18.15;9.90;;;5.90;99.90;;;;;;5011574;28;20101;-74
2022/12/05 08:08:54;;;;;;;24.58;10.65;;;5.90;99.90;;;;;;5011304;28;20034;-74
2022/12/05 08:11:33;;;;;;;19.00;9.18;;;5.90;99.90;;;;;;5010289;28;20487;-73
2022/12/05 08:13:59;;;;;;;18.75;9.18;;;6.00;99.90;;;;;;5011577;28;20044;-75
2022/12/05 08:16:27;;;;;;;19.45;9.60;;;5.90;99.90;;;;;;5009982;28;20038;-72
2022/12/05 08:18:57;;;;;;;20.35;10.70;;;5.90;99.90;;;;;;5011020;28;20558;-74
2022/12/05 08:21:26;;;;;;;19.70;10.25;;;5.90;99.90;;;;;;5010225;28;20034;-75
2022/12/05 08:23:52;;;;;;;20.20;10.25;;;5.90;99.90;;;;;;5010113;28;20440;-73
2022/12/05 08:26:23;;;;;;;17.40;8.88;;;5.90;99.90;;;;;;5012160;28;20045;-74
2022/12/05 08:29:00;;;;;;;17.75;9.23;;;5.90;99.90;;;;;;5013977;28;20468;-74
2022/12/05 08:31:28;;;;;;;16.30;8.85;;;5.80;99.90;;;;;;5013907;28;20494;-81
2022/12/05 08:33:56;;;;;;;20.25;10.90;;;6.00;99.90;;;;;;5013896;28;20030;-75
2022/12/05 08:36:22;;;;;;;20.60;8.90;;;5.90;99.90;;;;;;5014371;28;20026;-75
2022/12/05 08:38:48;;;;;;;23.85;12.57;;;5.80;99.90;;;;;;5013782;28;20084;-75
2022/12/05 08:41:16;;;;;;;17.77;9.02;;;5.80;99.90;;;;;;5014785;28;20046;-75
2022/12/05 08:43:42;;;;;;;;;;;5.80;99.90;;;;;;5015192;28;20112;-77
2022/12/05 08:46:08;;;;;;;17.20;8.48;;;5.80;99.90;;;;;;5013496;28;20259;-74
2022/12/05 08:48:35;;;;;;;18.05;10.20;;;5.80;99.90;;;;;;5014061;28;20037;-74
2022/12/05 08:51:09;;;;;;;16.55;9.27;;;5.90;99.90;;;;;;5013484;28;20030;-75
2022/12/05 08:53:39;;;;;;;15.70;8.27;;;5.90;99.90;;;;;;5014418;28;20440;-75
2022/12/05 08:56:06;;;;;;;18.02;9.60;;;5.80;99.90;;;;;;5014334;28;20460;-72
2022/12/05 08:58:33;;;;;;;16.83;8.55;;;5.80;99.90;;;;;;5014264;28;20431;-73
2022/12/05 09:01:06;;;;;;;13.57;8.27;;;5.90;99.90;;;;;;5014007;28;20375;-72
2022/12/05 09:03:32;;;;;;;17.33;8.70;;;5.90;99.90;;;;;;5015032;28;20103;-71
2022/12/05 09:06:16;;;;;;;17.27;8.55;;;6.00;99.90;;;;;;5013996;28;20025;-72
2022/12/05 09:08:43;;;;;;;14.25;7.97;;;6.00;99.90;;;;;;5014258;28;20432;-76
2022/12/05 09:11:12;;;;;;;17.42;8.93;;;5.90;99.90;;;;;;5013915;28;20021;-75
2022/12/05 09:13:38;;;;;;;18.08;9.05;;;5.90;99.90;;;;;;5014171;28;20030;-75
2022/12/05 09:16:09;;;;;;;15.43;8.88;;;5.90;99.90;;;;;;5014447;28;20083;-74
2022/12/05 09:18:35;;;;;;;18.58;9.05;;;6.00;99.90;;;;;;5015791;28;20101;-74
2022/12/05 09:21:06;;;;;;;16.25;8.85;;;5.90;99.90;;;;;;5015110;28;20049;-74
2022/12/05 09:23:32;;;;;;;14.20;8.07;;;5.90;99.90;;;;;;5014630;28;20037;-74
2022/12/05 09:26:01;;;;;;;17.83;8.90;;;5.90;99.90;;;;;;5014190;28;20033;-72
2022/12/05 09:28:27;;;;;;;20.63;9.55;;;5.90;99.90;;;;;;5014019;28;20468;-74
2022/12/05 09:31:02;;;;;;;16.63;9.07;;;5.90;99.90;;;;;;5013919;28;20187;-73
2022/12/05 09:33:29;;;;;;;21.52;9.35;;;6.00;99.90;;;;;;5013185;28;20030;-73
2022/12/05 09:35:54;;;;;;;17.42;9.30;;;6.00;99.90;;;;;;5012761;28;20468;-74
2022/12/05 09:38:21;;;;;;;18.85;9.63;;;6.00;99.90;;;;;;5011621;28;20030;-74
2022/12/05 09:40:52;;;;;;;16.20;8.63;;;5.90;99.90;;;;;;5012448;28;20038;-76
2022/12/05 09:43:50;;;;;;;17.88;9.70;;;5.90;99.90;;;;;;5012898;28;20475;-75
2022/12/05 09:46:23;;;;;;;19.90;10.23;;;6.00;99.90;;;;;;5013631;28;20048;-74
2022/12/05 09:48:50;;;;;;;17.55;9.20;;;6.00;99.90;;;;;;5013958;28;20022;-75
2022/12/05 09:51:16;;;;;;;17.88;9.32;;;6.00;99.90;;;;;;5014012;28;20029;-75
2022/12/05 09:53:43;;;;;;;16.67;8.48;;;6.00;99.90;;;;;;5013883;28;20363;-74
2022/12/05 09:56:09;;;;;;;14.88;8.93;;;6.10;99.90;;;;;;5012614;28;20109;-73
2022/12/05 09:58:44;;;;;;;15.65;8.85;;;6.20;99.90;;;;;;5012813;28;20551;-74
2022/12/05 10:01:26;;;;;;;13.77;7.95;;;6.20;99.90;;;;;;5011995;28;20107;-75
2022/12/05 10:03:57;;;;;;;14.50;8.25;;;6.30;99.90;;;;;;5013058;28;20026;-76
2022/12/05 10:06:40;;;;;;;14.20;8.13;;;6.30;99.90;;;;;;5014077;28;20108;-75
2022/12/05 10:09:32;;;;;;;13.20;7.88;;;6.30;99.90;;;;;;5013872;28;20076;-73
2022/12/05 10:12:36;;;;;;;11.20;7.00;;;6.20;99.90;;;;;;5013845;28;20050;-76
2022/12/05 10:15:27;;;;;;;14.00;8.15;;;6.20;99.90;;;;;;5014947;28;20140;-73
2022/12/05 10:18:00;;;;;;;16.52;8.23;;;6.30;99.90;;;;;;5013549;28;20506;-74
2022/12/05 10:20:50;;;;;;;15.00;7.55;;;6.20;99.90;;;;;;5012148;28;20408;-74
2022/12/05 10:23:45;;;;;;;11.30;6.85;;;6.20;99.90;;;;;;5014305;28;20526;-73
2022/12/05 10:26:15;;;;;;;15.95;8.43;;;6.20;99.90;;;;;;5013564;28;20125;-72
2022/12/05 10:28:51;;;;;;;19.30;10.82;;;6.20;99.90;;;;;;5013296;28;20034;-73
2022/12/05 10:31:21;;;;;;;14.98;8.32;;;6.10;99.90;;;;;;5013469;28;20464;-73
2022/12/05 10:33:52;;;;;;;23.55;12.60;;;6.30;99.90;;;;;;5012821;28;20033;-74
2022/12/05 10:36:18;;;;;;;14.35;8.35;;;6.30;99.90;;;;;;5013919;28;20014;-72
2022/12/05 10:38:45;;;;;;;13.85;7.78;;;6.20;99.90;;;;;;5011576;28;20066;-71
2022/12/05 10:41:13;;;;;;;14.35;7.80;;;6.20;99.90;;;;;;5012127;28;20069;-72
2022/12/05 10:43:42;;;;;;;13.13;6.90;;;6.30;99.90;;;;;;5012894;28;20364;-73
2022/12/05 10:46:09;;;;;;;11.55;6.28;;;6.20;99.90;;;;;;5012352;28;20037;-72
2022/12/05 10:48:37;;;;;;;10.48;6.45;;;6.30;99.90;;;;;;5012920;28;20026;-71
2022/12/05 10:51:05;;;;;;;10.40;6.25;;;6.30;99.90;;;;;;5012672;28;20026;-73
2022/12/05 10:53:40;;;;;;;10.55;5.90;;;6.30;99.90;;;;;;5012382;28;20034;-73
2022/12/05 10:56:40;;;;;;;23.50;9.05;;;6.30;99.90;;;;;;5012288;28;20479;-73
2022/12/05 10:59:09;;;;;;;12.93;6.93;;;6.30;99.90;;;;;;5012004;28;20049;-75
2022/12/05 11:01:36;;;;;;;9.90;6.22;;;6.30;99.90;;;;;;5012378;28;20030;-74
2022/12/05 11:04:23;;;;;;;11.63;6.93;;;6.30;99.90;;;;;;5012071;28;20048;-72
2022/12/05 11:06:54;;;;;;;11.45;6.10;;;6.30;99.90;;;;;;5011990;28;20175;-72
2022/12/05 11:09:24;;;;;;;14.18;6.85;;;6.30;99.90;;;;;;5012529;28;20021;-74
2022/12/05 11:12:05;;;;;;;12.88;6.32;;;6.30;99.90;;;;;;5010665;28;20046;-71
2022/12/05 11:14:33;;;;;;;12.38;6.53;;;6.30;99.90;;;;;;5012068;28;20104;-74
2022/12/05 11:17:00;;;;;;;12.30;6.05;;;6.30;99.90;;;;;;5011750;28;20026;-71
2022/12/05 11:19:30;;;;;;;13.00;6.20;;;6.30;99.90;;;;;;5011775;28;20805;-72
2022/12/05 11:21:57;;;;;;;13.77;5.90;;;6.30;99.90;;;;;;5011592;28;20057;-72
2022/12/05 11:24:29;;;;;;;16.88;7.28;;;6.30;99.90;;;;;;5012012;28;20084;-75
2022/12/05 11:26:56;;;;;;;10.32;5.72;;;6.30;99.90;;;;;;5012422;28;20038;-74
2022/12/05 11:29:34;;;;;;;12.10;7.05;;;6.20;99.90;;;;;;5011875;28;20033;-75
2022/12/05 11:32:01;;;;;;;10.68;6.20;;;6.20;99.90;;;;;;5010433;28;20034;-74
2022/12/05 11:34:46;;;;;;;14.77;6.88;;;6.30;99.90;;;;;;5010905;28;20122;-75
2022/12/05 11:37:19;;;;;;;11.70;5.47;;;6.30;99.90;;;;;;5011846;28;20164;-74
2022/12/05 11:39:44;;;;;;;11.82;6.97;;;6.30;99.90;;;;;;5011903;28;20018;-73
2022/12/05 11:42:13;;;;;;;12.57;6.88;;;6.30;99.90;;;;;;5012106;28;20336;-74
2022/12/05 11:45:02;;;;;;;12.15;6.00;;;6.20;99.90;;;;;;5011528;28;20117;-74
2022/12/05 11:47:37;;;;;;;8.40;5.13;;;6.20;99.90;;;;;;5011788;28;20029;-74
2022/12/05 11:50:11;;;;;;;10.35;4.80;;;6.20;99.90;;;;;;5011398;28;20376;-75
2022/12/05 11:52:55;;;;;;;8.98;4.80;;;6.10;99.90;;;;;;5011482;28;20044;-75
2022/12/05 11:55:23;;;;;;;15.45;7.60;;;6.10;99.90;;;;;;5010388;28;20072;-75
2022/12/05 11:58:11;;;;;;;7.07;4.45;;;6.00;99.90;;;;;;5011041;28;20029;-75
2022/12/05 12:00:45;;;;;;;9.63;4.80;;;6.20;99.90;;;;;;5010728;28;20033;-75
2022/12/05 12:03:29;;;;;;;9.07;4.78;;;6.20;99.90;;;;;;5016309;28;20041;-77
2022/12/05 12:06:13;;;;;;;12.55;7.15;;;6.20;99.90;;;;;;5015561;28;20022;-76
2022/12/05 12:09:17;;;;;;;9.75;5.05;;;6.00;99.90;;;;;;5017250;28;20043;-75
2022/12/05 12:12:09;;;;;;;9.63;5.35;;;6.30;99.90;;;;;;5002541;28;20050;-73
2022/12/05 12:14:46;;;;;;;21.95;11.63;;;6.30;99.90;;;;;;5012635;28;20026;-73
2022/12/05 12:17:37;;;;;;;36.65;16.67;;;6.30;99.90;;;;;;5014575;28;20041;-73
2022/12/05 12:20:21;;;;;;;13.63;6.43;;;6.40;99.90;;;;;;5015448;28;20049;-73
2022/12/05 12:23:05;;;;;;;13.55;5.20;;;6.40;99.90;;;;;;5015602;28;20542;-74
2022/12/05 12:25:37;;;;;;;9.60;5.30;;;6.50;99.90;;;;;;5016287;28;20041;-73
2022/12/05 12:28:29;;;;;;;7.85;4.65;;;6.40;99.90;;;;;;5016407;28;20041;-74
2022/12/05 12:31:05;;;;;;;20.80;5.38;;;6.30;99.90;;;;;;5014550;28;20029;-74
2022/12/05 12:33:43;;;;;;;14.38;5.78;;;6.30;99.90;;;;;;5015284;28;20029;-74
2022/12/05 12:36:32;;;;;;;9.80;5.55;;;6.30;99.90;;;;;;5014583;28;20034;-73
2022/12/05 12:39:28;;;;;;;13.52;6.82;;;6.30;99.90;;;;;;5016156;28;20514;-74
2022/12/05 12:42:11;;;;;;;9.00;5.47;;;6.50;99.90;;;;;;5015073;28;20030;-75
2022/12/05 12:45:01;;;;;;;11.65;5.47;;;6.40;99.90;;;;;;5014976;28;20495;-74
2022/12/05 12:47:58;;;;;;;7.65;4.15;;;6.40;99.90;;;;;;5014766;28;20065;-73
2022/12/05 12:50:31;;;;;;;9.30;4.53;;;6.40;99.90;;;;;;5015179;28;20387;-73
2022/12/05 12:53:05;;;;;;;8.40;4.97;;;6.40;99.90;;;;;;5014498;28;20061;-73
2022/12/05 12:56:02;;;;;;;8.82;4.25;;;6.30;99.90;;;;;;5015099;28;20049;-74
2022/12/05 12:58:31;;;;;;;10.90;5.72;;;6.30;99.90;;;;;;5014873;28;20038;-75
2022/12/05 13:00:56;;;;;;;9.35;5.03;;;6.30;99.90;;;;;;5014364;28;20494;-74
2022/12/05 13:03:47;;;;;;;8.88;5.25;;;6.40;99.90;;;;;;5014403;28;20168;-73
2022/12/05 13:06:31;;;;;;;11.50;5.95;;;6.30;99.90;;;;;;5013377;28;20439;-73
2022/12/05 13:09:06;;;;;;;10.10;5.20;;;6.30;99.90;;;;;;5013013;28;20268;-73
2022/12/05 13:11:39;;;;;;;8.23;4.55;;;6.30;99.90;;;;;;5014196;28;20057;-74
2022/12/05 13:14:13;;;;;;;11.25;4.80;;;6.30;99.90;;;;;;5013974;28;20030;-74
2022/12/05 13:16:43;;;;;;;7.47;4.68;;;6.30;99.90;;;;;;5013071;28;20085;-72
2022/12/05 13:19:39;;;;;;;8.05;4.93;;;6.30;99.90;;;;;;5013413;28;20112;-74